.
WxDataArchive / Data Records for 2008-05-03
2008-05-02 May 2008 2008-05-04

Data Records for Saturday, 03 May 2008

Time	Temp	Chill	HIndex	Humid	Dewpt	 Wind 	HiWind	WindDir	Rain 	Barom 
-----	----	-----	------	-----	-----	------	------	-------	-----	----- 
00:00	62.0	62.0	62.0	81	56.1	2	9	248	0.00	29.603 
00:05	62.0	62.0	62.0	81	56.1	1	5	248	0.00	29.609 
00:10	61.8	61.8	61.8	81	55.9	1	4	112	0.00	29.611 
00:15	61.8	61.8	61.8	81	55.9	1	6	248	0.00	29.612 
00:20	61.8	61.8	61.8	81	55.9	1	5	270	0.00	29.607 
00:25	62.0	62.0	62.0	81	56.1	1	6	248	0.00	29.612 
00:30	62.1	62.1	62.1	81	56.2	2	9	270	0.00	29.610 
00:35	62.3	62.3	62.3	81	56.4	2	4	248	0.00	29.614 
00:40	62.3	62.3	62.3	81	56.4	1	4	225	0.00	29.624 
00:45	62.4	62.4	62.4	81	56.5	2	9	248	0.00	29.625 
00:50	62.4	62.4	62.4	81	56.5	1	6	248	0.00	29.621 
00:55	62.3	62.3	62.3	84	57.4	1	4	270	0.01	29.618 
01:00	61.8	61.8	61.8	85	57.2	1	5	248	0.01	29.617 
01:05	61.2	61.2	61.2	87	57.3	2	7	248	0.01	29.625 
01:10	60.7	60.7	60.7	89	57.4	2	7	248	0.01	29.624 
01:15	60.5	60.5	60.5	90	57.5	0	2	248	0.00	29.615 
01:20	60.2	60.2	60.2	91	57.6	1	3	248	0.00	29.617 
01:25	59.9	59.9	59.9	91	57.3	1	4	248	0.00	29.613 
01:30	59.5	59.5	59.5	91	56.9	0	3	248	0.00	29.608 
01:35	59.3	59.3	59.3	91	56.7	0	2	270	0.00	29.612 
01:40	59.2	59.2	59.2	92	56.9	0	1	270	0.00	29.609 
01:45	59.2	59.2	59.2	92	56.9	0	1	270	0.00	29.599 
01:50	59.2	59.2	59.2	92	56.9	0	2	270	0.00	29.601 
01:55	59.2	59.2	59.2	93	57.2	1	4	45	0.00	29.598 
02:00	59.2	59.2	59.2	93	57.2	0	1	225	0.00	29.601 
02:05	59.2	59.2	59.2	93	57.2	0	2	202	0.00	29.601 
02:10	59.2	59.2	59.2	93	57.2	0	1	202	0.00	29.589 
02:15	59.2	59.2	59.2	93	57.2	0	1	202	0.00	29.591 
02:20	59.0	59.0	59.0	93	57.0	0	1	202	0.00	29.598 
02:25	58.9	58.9	58.9	93	56.9	0	1	202	0.00	29.596 
02:30	59.0	59.0	59.0	94	57.3	0	1	202	0.00	29.598 
02:35	59.2	59.2	59.2	94	57.5	1	4	292	0.00	29.593 
02:40	59.2	59.2	59.2	94	57.5	0	0	---	0.00	29.593 
02:45	59.0	59.0	59.0	94	57.3	0	1	292	0.00	29.599 
02:50	59.2	59.2	59.2	94	57.5	1	3	68	0.00	29.606 
02:55	59.2	59.2	59.2	94	57.5	0	2	68	0.00	29.603 
03:00	59.2	59.2	59.2	94	57.5	0	1	68	0.00	29.604 
03:05	59.3	59.3	59.3	94	57.6	1	3	112	0.00	29.601 
03:10	59.3	59.3	59.3	94	57.6	0	2	135	0.00	29.597 
03:15	59.3	59.3	59.3	93	57.3	0	3	90	0.00	29.600 
03:20	59.3	59.3	59.3	93	57.3	0	2	90	0.00	29.597 
03:25	59.3	59.3	59.3	93	57.3	0	2	90	0.00	29.594 
03:30	59.3	59.3	59.3	93	57.3	1	3	90	0.00	29.599 
03:35	59.3	59.3	59.3	93	57.3	1	4	90	0.00	29.603 
03:40	59.3	59.3	59.3	92	57.0	1	5	90	0.00	29.602 
03:45	59.3	59.3	59.3	92	57.0	1	6	135	0.00	29.594 
03:50	59.2	59.2	59.2	91	56.6	1	4	68	0.00	29.591 
03:55	59.2	59.2	59.2	90	56.3	2	4	112	0.00	29.590 
04:00	59.2	59.2	59.2	88	55.6	1	4	68	0.00	29.589 
04:05	59.0	59.0	59.0	88	55.4	1	4	68	0.00	29.587 
04:10	58.9	58.9	58.9	87	55.0	0	3	270	0.00	29.581 
04:15	58.9	58.9	58.9	87	55.0	0	4	248	0.00	29.585 
04:20	58.7	58.7	58.7	87	54.8	0	2	248	0.00	29.583 
04:25	58.6	58.6	58.6	87	54.7	0	1	292	0.00	29.584 
04:30	58.6	58.6	58.6	86	54.4	0	3	292	0.00	29.584 
04:35	58.4	58.4	58.4	86	54.2	0	2	90	0.00	29.583 
04:40	58.3	58.3	58.3	85	53.8	0	2	90	0.00	29.579 
04:45	58.3	58.3	58.3	84	53.5	1	3	68	0.00	29.577 
04:50	58.3	58.3	58.3	83	53.2	1	3	112	0.00	29.578 
04:55	58.1	58.1	58.1	83	53.0	0	3	112	0.00	29.578 
05:00	58.0	58.0	58.0	82	52.5	1	4	112	0.00	29.576 
05:05	57.8	57.8	57.8	82	52.3	0	2	22	0.00	29.581 
05:10	57.6	57.6	57.6	82	52.1	1	3	90	0.00	29.582 
05:15	57.5	57.5	57.5	82	52.0	2	5	112	0.00	29.579 
05:20	57.2	57.2	57.2	82	51.8	1	5	112	0.00	29.578 
05:25	56.7	56.7	56.7	82	51.3	0	3	225	0.00	29.576 
05:30	56.5	56.5	56.5	83	51.4	0	3	135	0.00	29.576 
05:35	56.0	56.0	56.0	83	50.9	0	2	135	0.00	29.577 
05:40	55.7	55.7	55.7	83	50.6	0	3	135	0.00	29.582 
05:45	55.6	55.6	55.6	83	50.5	0	3	135	0.00	29.585 
05:50	55.4	55.4	55.4	83	50.3	0	3	112	0.00	29.585 
05:55	55.4	55.4	55.4	83	50.3	1	3	112	0.00	29.585 
06:00	55.4	55.4	55.4	82	50.0	1	3	112	0.00	29.584 
06:05	55.4	55.4	55.4	82	50.0	1	5	112	0.00	29.587 
06:10	55.4	55.4	55.4	81	49.7	1	5	112	0.00	29.589 
06:15	55.4	55.4	55.4	81	49.7	1	5	90	0.00	29.584 
06:20	55.4	55.4	55.4	81	49.7	1	5	112	0.00	29.584 
06:25	55.4	55.4	55.4	81	49.7	1	3	112	0.00	29.583 
06:30	55.3	55.3	55.3	81	49.6	1	3	112	0.00	29.582 
06:35	55.3	55.3	55.3	81	49.6	1	3	90	0.00	29.583 
06:40	55.4	55.4	55.4	81	49.7	1	4	112	0.00	29.582 
06:45	55.4	55.4	55.4	81	49.7	0	2	90	0.00	29.585 
06:50	55.4	55.4	55.4	81	49.7	1	3	90	0.00	29.582 
06:55	55.4	55.4	55.4	80	49.3	0	2	90	0.00	29.580 
07:00	55.4	55.4	55.4	80	49.3	0	2	90	0.00	29.582 
07:05	55.6	55.6	55.6	79	49.2	1	2	135	0.00	29.578 
07:10	55.7	55.7	55.7	78	48.9	0	2	112	0.00	29.577 
07:15	55.9	55.9	55.9	77	48.8	1	3	112	0.00	29.579 
07:20	56.0	56.0	56.0	77	48.9	1	3	112	0.00	29.576 
07:25	56.2	56.2	56.2	77	49.1	0	2	112	0.00	29.576 
07:30	56.3	56.3	56.3	76	48.8	1	3	112	0.00	29.577 
07:35	56.6	56.6	56.6	76	49.1	1	2	22	0.00	29.576 
07:40	56.7	56.7	56.7	75	48.9	1	4	90	0.00	29.575 
07:45	56.9	56.9	56.9	74	48.7	1	3	135	0.00	29.575 
07:50	56.9	56.9	56.9	73	48.3	1	3	112	0.00	29.574 
07:55	57.0	57.0	57.0	73	48.4	1	2	112	0.00	29.566 
08:00	57.2	57.2	57.2	71	47.9	1	3	112	0.00	29.561 
08:05	57.5	57.5	57.5	72	48.5	0	1	112	0.00	29.562 
08:10	57.8	57.8	57.8	71	48.5	1	3	112	0.00	29.562 
08:15	58.0	58.0	58.0	71	48.6	0	2	112	0.00	29.566 
08:20	58.3	58.3	58.3	69	48.2	1	4	112	0.00	29.570 
08:25	58.3	58.3	58.3	69	48.2	1	3	112	0.00	29.569 
08:30	58.4	58.4	58.4	69	48.3	0	3	112	0.00	29.569 
08:35	58.6	58.6	58.6	70	48.8	0	2	338	0.00	29.566 
08:40	58.7	58.7	58.7	69	48.6	0	2	292	0.00	29.568 
08:45	58.9	58.9	58.9	67	48.0	1	5	248	0.00	29.568 
08:50	59.2	59.2	59.2	67	48.2	1	3	202	0.00	29.564 
08:55	59.5	59.5	59.5	65	47.7	1	5	270	0.00	29.563 
09:00	59.6	59.6	59.6	65	47.8	1	4	248	0.00	29.559 
09:05	59.9	59.9	59.9	66	48.5	1	3	68	0.00	29.563 
09:10	60.1	60.1	60.1	65	48.3	1	4	68	0.00	29.563 
09:15	60.2	60.2	60.2	66	48.8	1	5	112	0.00	29.565 
09:20	60.2	60.2	60.2	66	48.8	1	4	270	0.00	29.563 
09:25	60.7	60.7	60.7	65	48.9	2	5	248	0.00	29.563 
09:30	61.2	61.2	61.2	63	48.5	1	5	248	0.00	29.560 
09:35	61.3	61.3	61.3	64	49.0	2	5	225	0.00	29.564 
09:40	61.6	61.6	61.6	63	48.9	2	6	270	0.00	29.562 
09:45	62.3	62.3	62.3	63	49.5	2	6	270	0.00	29.563 
09:50	62.7	62.7	62.7	63	49.9	2	7	270	0.00	29.558 
09:55	63.2	63.2	63.2	62	50.0	2	4	90	0.00	29.559 
10:00	63.4	63.4	63.4	60	49.3	2	6	248	0.00	29.559 
10:05	62.9	62.9	62.9	59	48.3	3	10	248	0.00	29.564 
10:10	62.9	62.9	62.9	60	48.8	2	6	248	0.00	29.566 
10:15	63.1	63.1	63.1	59	48.5	2	6	248	0.00	29.561 
10:20	63.9	63.9	63.9	58	48.8	3	5	248	0.00	29.563 
10:25	64.8	64.8	64.8	54	47.8	3	10	248	0.00	29.560 
10:30	65.5	65.5	65.5	55	48.9	3	7	270	0.00	29.564 
10:35	66.3	66.3	66.3	55	49.6	2	7	270	0.00	29.559 
10:40	66.8	66.8	66.8	52	48.6	3	6	248	0.00	29.565 
10:45	66.4	66.4	66.4	50	47.2	5	16	270	0.00	29.567 
10:50	66.6	66.6	66.6	54	49.4	4	16	270	0.00	29.569 
10:55	67.3	67.3	67.3	53	49.6	3	9	270	0.00	29.568 
11:00	67.8	67.8	67.8	51	49.0	3	10	270	0.00	29.560 
11:05	68.3	68.3	68.3	47	47.3	4	11	248	0.00	29.560 
11:10	68.1	68.1	68.1	47	47.1	5	10	248	0.00	29.559 
11:15	68.4	68.4	68.4	47	47.4	3	10	248	0.00	29.556 
11:20	69.1	69.1	69.1	49	49.1	3	10	248	0.00	29.557 
11:25	68.4	68.4	68.4	43	45.0	7	13	270	0.01	29.558 
11:30	68.4	68.4	68.4	44	45.6	5	12	248	0.00	29.554 
11:35	68.9	68.9	68.9	46	47.3	5	11	248	0.00	29.553 
11:40	68.8	68.8	68.8	42	44.8	7	14	270	0.00	29.556 
11:45	68.4	68.4	68.4	44	45.6	4	10	270	0.00	29.552 
11:50	68.6	68.6	68.6	47	47.6	3	10	248	0.00	29.553 
11:55	68.4	68.4	68.4	46	46.8	5	11	248	0.00	29.552 
12:00	68.3	68.3	68.3	47	47.3	4	11	248	0.00	29.547 
12:05	68.8	68.8	68.8	42	44.8	4	12	270	0.00	29.550 
12:10	69.1	69.1	69.1	42	45.0	5	12	248	0.00	29.549 
12:15	68.8	68.8	68.8	41	44.1	7	19	248	0.00	29.549 
12:20	68.6	68.6	68.6	43	45.2	4	14	270	0.00	29.545 
12:25	68.9	68.9	68.9	43	45.5	4	11	248	0.00	29.541 
12:30	68.9	68.9	68.9	41	44.2	4	11	248	0.00	29.540 
12:35	68.8	68.8	68.8	41	44.1	5	13	270	0.00	29.538 
12:40	68.9	68.9	68.9	40	43.6	5	11	270	0.00	29.538 
12:45	69.1	69.1	69.1	40	43.8	5	13	270	0.00	29.536 
12:50	69.4	69.4	69.4	41	44.7	5	16	248	0.00	29.537 
12:55	69.4	69.4	69.4	42	45.3	5	13	270	0.00	29.537 
13:00	68.6	68.6	68.6	40	43.3	6	16	270	0.00	29.541 
13:05	68.4	68.4	68.4	45	46.2	5	12	248	0.00	29.548 
13:10	68.6	68.6	68.6	43	45.2	5	10	270	0.00	29.553 
13:15	67.8	67.8	67.8	40	42.6	6	16	270	0.00	29.558 
13:20	67.6	67.6	67.6	42	43.7	5	11	248	0.00	29.555 
13:25	67.6	67.6	67.6	46	46.1	4	13	248	0.00	29.557 
13:30	67.3	67.3	67.3	40	42.1	6	13	270	0.00	29.558 
13:35	66.9	66.9	66.9	42	43.1	7	15	270	0.00	29.562 
13:40	66.8	66.8	66.8	43	43.6	7	14	270	0.00	29.564 
13:45	66.0	66.0	66.0	41	41.6	6	13	270	0.00	29.575 
13:50	65.8	65.8	65.8	43	42.7	6	15	270	0.00	29.576 
13:55	65.0	65.0	65.0	42	41.3	7	15	270	0.00	29.576 
14:00	64.5	64.5	64.5	46	43.3	5	14	270	0.00	29.582 
14:05	64.8	64.8	64.8	45	43.0	5	15	248	0.00	29.579 
14:10	64.5	64.5	64.5	45	42.7	6	16	270	0.00	29.584 
14:15	63.7	63.7	63.7	46	42.5	5	12	270	0.00	29.593 
14:20	63.4	63.4	63.4	49	43.9	3	10	248	0.00	29.592 
14:25	63.9	63.9	63.9	47	43.3	4	12	248	0.00	29.591 
14:30	63.9	63.9	63.9	45	42.1	7	15	270	0.00	29.593 
14:35	63.5	63.5	63.5	47	42.9	5	13	270	0.00	29.592 
14:40	63.7	63.7	63.7	46	42.5	4	11	270	0.00	29.595 
14:45	63.1	63.1	63.1	47	42.5	6	14	270	0.00	29.598 
14:50	62.9	62.9	62.9	48	42.9	5	12	248	0.00	29.595 
14:55	62.4	62.4	62.4	48	42.4	5	14	270	0.00	29.604 
15:00	61.8	61.8	61.8	48	41.9	7	16	270	0.00	29.609 
15:05	61.8	61.8	61.8	48	41.9	5	13	270	0.00	29.609 
15:10	62.0	62.0	62.0	47	41.5	6	12	270	0.00	29.609 
15:15	62.0	62.0	62.0	49	42.6	5	11	248	0.00	29.611 
15:20	60.9	60.9	60.9	50	42.1	6	12	270	0.00	29.614 
15:25	60.1	60.1	60.1	54	43.4	6	15	270	0.00	29.620 
15:30	59.6	59.6	59.6	54	42.9	5	14	270	0.00	29.626 
15:35	59.5	59.5	59.5	54	42.8	7	16	270	0.00	29.626 
15:40	58.7	58.7	58.7	57	43.5	7	17	270	0.00	29.635 
15:45	58.0	58.0	58.0	59	43.8	6	10	270	0.00	29.632 
15:50	57.5	57.5	57.5	59	43.3	6	12	270	0.00	29.637 
15:55	57.0	57.0	57.0	60	43.3	6	15	270	0.00	29.645 
16:00	56.7	56.7	56.7	60	43.0	5	10	270	0.00	29.644 
16:05	56.7	56.7	56.7	61	43.4	3	9	270	0.00	29.647 
16:10	56.7	56.7	56.7	59	42.5	5	10	270	0.00	29.648 
16:15	56.7	56.7	56.7	59	42.5	6	14	270	0.00	29.650 
16:20	56.5	56.5	56.5	56	41.0	6	14	270	0.00	29.656 
16:25	56.0	56.0	56.0	57	41.0	6	14	270	0.00	29.662 
16:30	55.9	55.9	55.9	59	41.8	6	16	270	0.00	29.662 
16:35	55.7	55.7	55.7	60	42.0	4	10	270	0.00	29.665 
16:40	55.7	55.7	55.7	59	41.6	5	14	270	0.00	29.671 
16:45	55.6	55.6	55.6	60	41.9	6	12	270	0.00	29.674 
16:50	55.1	55.1	55.1	59	41.0	6	18	270	0.00	29.679 
16:55	55.0	55.0	55.0	60	41.4	5	15	270	0.00	29.679 
17:00	54.7	54.7	54.7	60	41.1	6	16	270	0.00	29.680 
17:05	54.5	54.5	54.5	60	40.9	7	23	270	0.00	29.683 
17:10	54.5	54.5	54.5	61	41.3	5	19	248	0.00	29.683 
17:15	54.4	54.4	54.4	60	40.8	6	19	270	0.00	29.690 
17:20	54.2	54.2	54.2	61	41.0	5	13	248	0.00	29.691 
17:25	53.9	53.9	53.9	60	40.3	6	17	270	0.00	29.698 
17:30	53.5	53.5	53.5	61	40.4	7	14	270	0.00	29.696 
17:35	53.2	53.2	53.2	62	40.5	6	14	270	0.00	29.700 
17:40	52.8	52.8	52.8	63	40.6	5	10	270	0.00	29.705 
17:45	52.8	52.8	52.8	63	40.6	6	13	270	0.00	29.708 
17:50	52.6	52.6	52.6	63	40.4	8	18	270	0.00	29.710 
17:55	52.3	52.3	52.3	64	40.5	6	16	270	0.00	29.716 
18:00	52.2	52.2	52.2	65	40.8	4	9	248	0.00	29.718 
18:05	52.0	52.0	52.0	65	40.6	6	15	270	0.00	29.717 
18:10	51.9	51.9	51.9	66	40.9	5	14	248	0.00	29.720 
18:15	51.9	51.9	51.9	66	40.9	5	14	270	0.00	29.723 
18:20	51.9	51.9	51.9	66	40.9	5	14	270	0.00	29.725 
18:25	51.9	51.9	51.9	66	40.9	5	10	270	0.00	29.729 
18:30	51.9	51.9	51.9	67	41.3	3	11	248	0.00	29.730 
18:35	51.9	51.9	51.9	67	41.3	4	10	248	0.00	29.732 
18:40	51.7	51.7	51.7	66	40.7	5	14	270	0.00	29.733 
18:45	51.6	51.6	51.6	66	40.6	4	9	248	0.00	29.736 
18:50	51.3	51.3	51.3	67	40.7	5	17	248	0.00	29.743 
18:55	51.0	51.0	51.0	68	40.8	5	12	270	0.00	29.744 
19:00	50.8	50.8	50.8	69	41.0	3	7	248	0.00	29.747 
19:05	50.7	50.7	50.7	69	40.9	5	12	248	0.00	29.747 
19:10	50.7	50.7	50.7	70	41.3	3	6	248	0.00	29.749 
19:15	50.5	50.5	50.5	71	41.5	4	11	270	0.00	29.754 
19:20	50.5	50.5	50.5	71	41.5	4	10	270	0.00	29.758 
19:25	50.4	50.4	50.4	71	41.4	5	14	270	0.00	29.762 
19:30	50.2	50.2	50.2	70	40.8	5	11	270	0.00	29.765 
19:35	50.1	50.1	50.1	71	41.1	4	9	270	0.00	29.767 
19:40	50.1	50.1	50.1	72	41.4	3	5	270	0.00	29.773 
19:45	49.8	48.6	49.8	72	41.1	4	16	270	0.00	29.777 
19:50	49.5	48.3	49.5	74	41.6	4	10	270	0.00	29.781 
19:55	48.8	47.5	48.8	80	42.9	4	10	270	0.00	29.789 
20:00	48.0	46.6	48.0	84	43.4	4	10	270	0.00	29.793 
20:05	47.6	47.6	47.6	86	43.6	3	7	270	0.00	29.793 
20:10	47.3	47.3	47.3	87	43.6	3	7	270	0.00	29.795 
20:15	47.0	47.0	47.0	88	43.6	3	6	270	0.00	29.800 
20:20	47.0	45.4	47.0	88	43.6	4	6	270	0.00	29.804 
20:25	47.0	47.0	47.0	87	43.3	3	6	270	0.00	29.809 
20:30	47.0	47.0	47.0	86	43.0	3	7	270	0.00	29.815 
20:35	47.0	45.4	47.0	86	43.0	4	7	270	0.00	29.817 
20:40	46.8	46.8	46.8	85	42.5	3	7	270	0.00	29.825 
20:45	46.8	46.8	46.8	85	42.5	3	6	270	0.00	29.827 
20:50	46.7	46.7	46.7	83	41.8	3	9	270	0.00	29.830 
20:55	46.7	45.1	46.7	81	41.2	4	7	270	0.00	29.841 
21:00	46.5	44.8	46.5	81	41.0	4	10	270	0.00	29.840 
21:05	46.7	45.1	46.7	80	40.9	4	9	270	0.00	29.839 
21:10	46.7	45.1	46.7	79	40.5	4	10	270	0.00	29.840 
21:15	46.7	46.7	46.7	79	40.5	3	5	270	0.00	29.846 
21:20	46.7	46.7	46.7	79	40.5	3	8	270	0.00	29.847 
21:25	46.7	46.7	46.7	78	40.2	3	9	270	0.00	29.854 
21:30	46.7	46.7	46.7	77	39.9	3	7	248	0.00	29.856 
21:35	46.7	45.1	46.7	77	39.9	4	10	270	0.00	29.860 
21:40	46.7	46.7	46.7	77	39.9	2	7	315	0.00	29.861 
21:45	46.5	46.5	46.5	77	39.7	3	7	270	0.00	29.867 
21:50	46.5	46.5	46.5	77	39.7	2	6	338	0.00	29.870 
21:55	46.5	46.5	46.5	77	39.7	2	5	315	0.00	29.871 
22:00	46.5	46.5	46.5	77	39.7	3	5	248	0.00	29.874 
22:05	46.5	46.5	46.5	77	39.7	3	7	270	0.00	29.873 
22:10	46.5	46.5	46.5	78	40.0	1	4	292	0.00	29.876 
22:15	46.5	46.5	46.5	78	40.0	1	3	292	0.00	29.876 
22:20	46.5	46.5	46.5	79	40.3	2	8	292	0.00	29.882 
22:25	46.5	46.5	46.5	79	40.3	2	5	248	0.00	29.882 
22:30	46.5	46.5	46.5	79	40.3	2	3	270	0.00	29.884 
22:35	46.5	46.5	46.5	80	40.7	2	5	270	0.00	29.885 
22:40	46.5	46.5	46.5	80	40.7	2	6	248	0.00	29.886 
22:45	46.4	46.4	46.4	81	40.9	2	4	248	0.00	29.892 
22:50	46.4	46.4	46.4	81	40.9	1	4	270	0.00	29.894 
22:55	46.5	46.5	46.5	81	41.0	1	3	248	0.00	29.898 
23:00	46.7	46.7	46.7	81	41.2	1	3	292	0.00	29.897 
23:05	46.8	46.8	46.8	80	41.0	1	4	248	0.00	29.899 
23:10	47.0	47.0	47.0	80	41.2	1	2	225	0.00	29.901 
23:15	47.0	47.0	47.0	79	40.8	1	5	225	0.00	29.902 
23:20	47.0	47.0	47.0	79	40.8	1	5	248	0.00	29.905 
23:25	47.0	47.0	47.0	78	40.5	2	4	248	0.00	29.913 
23:30	46.8	46.8	46.8	78	40.3	1	4	225	0.00	29.914 
23:35	46.7	46.7	46.7	78	40.2	1	3	270	0.00	29.915 
23:40	46.5	46.5	46.5	79	40.3	0	2	270	0.00	29.917 
23:45	46.4	46.4	46.4	79	40.2	1	3	270	0.00	29.919 
23:50	46.2	46.2	46.2	79	40.1	1	4	248	0.00	29.921 
23:55	46.2	46.2	46.2	79	40.1	1	2	248	0.00	29.925 

CoCoRaHS
IN-AL-39
A2 Web Hosting
Creative Commons License
GoDaddy
Look for:

loaded 2017-10-17 18:24:28 • last modified 2010-11-18 10:43:29
Privacy PolicyDisclaimer
• wx.awcolley.com is powered by PmWiki v.2002016 •
• all content (unless otherwise noted) © 2017 A W Colley